Time;durP1;ratioP1;P1;durP2;ratioP2;P2;SDS_P1;SDS_P2;PMS_P1;PMS_P2;Temp;Humidity;BMP_temperature;BMP_pressure;BME280_temperature;BME280_humidity;BME280_pressure;Samples;Min_cycle;Max_cycle;Signal;HPM_P1;HPM_P2
2021/11/19 00:02:25;;;;;;;10.95;7.18;;;;;;;;;;5087627;28;20417;-53
2021/11/19 00:04:52;;;;;;;12.27;8.27;;;;;;;;;;5055123;28;20029;-54
2021/11/19 00:07:18;;;;;;;8.52;7.63;;;;;;;;;;5054778;28;20029;-53
2021/11/19 00:09:44;;;;;;;9.20;7.57;;;;;;;;;;5055333;28;20025;-54
2021/11/19 00:12:10;;;;;;;8.05;6.72;;;;;;;;;;5055226;28;20025;-53
2021/11/19 00:14:36;;;;;;;8.85;6.75;;;;;;;;;;5054872;28;20578;-55
2021/11/19 00:17:05;;;;;;;8.85;6.90;;;;;;;;;;5054425;28;20362;-56
2021/11/19 00:19:32;;;;;;;8.85;7.18;;;;;;;;;;5054766;28;20025;-55
2021/11/19 00:21:58;;;;;;;10.18;7.75;;;;;;;;;;5055290;28;20025;-56
2021/11/19 00:24:25;;;;;;;9.45;8.20;;;;;;;;;;5054800;28;20106;-53
2021/11/19 00:26:51;;;;;;;7.95;7.15;;;;;;;;;;5054324;28;20115;-57
2021/11/19 00:29:17;;;;;;;10.30;6.80;;;;;;;;;;5054874;28;20025;-56
2021/11/19 00:31:43;;;;;;;8.75;6.95;;;;;;;;;;5054680;28;20060;-54
2021/11/19 00:34:10;;;;;;;8.85;7.43;;;;;;;;;;5054550;28;20021;-56
2021/11/19 00:36:37;;;;;;;9.25;7.35;;;;;;;;;;5054091;28;20033;-56
2021/11/19 00:39:07;;;;;;;9.07;7.13;;;;;;;;;;5054777;28;20071;-54
2021/11/19 00:41:33;;;;;;;;;;;;;;;;;;5054804;28;20059;-56
2021/11/19 00:44:00;;;;;;;8.90;7.60;;;;;;;;;;5054470;28;20034;-54
2021/11/19 00:46:26;;;;;;;9.45;6.13;;;;;;;;;;5053425;28;20071;-56
2021/11/19 00:48:52;;;;;;;10.02;7.30;;;;;;;;;;5054458;28;20348;-56
2021/11/19 00:51:23;;;;;;;9.00;7.07;;;;;;;;;;5054790;28;20036;-56
2021/11/19 00:53:49;;;;;;;;;;;;;;;;;;5054910;28;20035;-54
2021/11/19 00:59:19;;;;;;;7.22;6.15;;;;;;;;;;5049119;28;20052;-56
2021/11/19 01:01:48;;;;;;;10.68;7.13;;;;;;;;;;5053571;28;20123;-54
2021/11/19 01:04:14;;;;;;;8.15;6.80;;;;;;;;;;5054088;28;20033;-53
2021/11/19 01:06:40;;;;;;;10.30;7.15;;;;;;;;;;5054094;28;20021;-56
2021/11/19 01:09:09;;;;;;;10.13;6.38;;;;;;;;;;5053456;28;20071;-56
2021/11/19 01:11:35;;;;;;;8.83;7.93;;;;;;;;;;5054111;28;20380;-51
2021/11/19 01:14:03;;;;;;;7.82;6.75;;;;;;;;;;5053877;28;20017;-55
2021/11/19 01:16:33;;;;;;;7.88;6.15;;;;;;;;;;5053622;28;20367;-54
2021/11/19 01:19:01;;;;;;;11.85;8.13;;;;;;;;;;5053224;28;20471;-54
2021/11/19 01:21:39;;;;;;;8.52;6.57;;;;;;;;;;5054112;28;20387;-55
2021/11/19 01:24:05;;;;;;;8.52;6.97;;;;;;;;;;5053649;28;20044;-56
2021/11/19 01:26:36;;;;;;;8.35;6.75;;;;;;;;;;5053671;28;20542;-56
2021/11/19 01:29:06;;;;;;;7.95;6.22;;;;;;;;;;5052524;28;20422;-55
2021/11/19 01:31:34;;;;;;;7.05;6.20;;;;;;;;;;5053733;28;20128;-56
2021/11/19 01:34:00;;;;;;;9.98;7.05;;;;;;;;;;5053673;28;20024;-55
2021/11/19 01:36:26;;;;;;;10.32;7.35;;;;;;;;;;5053458;28;20461;-56
2021/11/19 01:38:52;;;;;;;7.23;6.03;;;;;;;;;;5052744;28;20036;-54
2021/11/19 01:41:24;;;;;;;9.23;6.93;;;;;;;;;;5053502;28;20055;-55
2021/11/19 01:43:50;;;;;;;8.65;6.82;;;;;;;;;;5053513;28;20116;-54
2021/11/19 01:46:19;;;;;;;13.85;8.40;;;;;;;;;;5053356;28;20029;-56
2021/11/19 01:48:46;;;;;;;10.60;8.55;;;;;;;;;;5052636;28;20021;-54
2021/11/19 01:51:20;;;;;;;8.65;6.70;;;;;;;;;;5053296;28;20032;-54
2021/11/19 01:53:53;;;;;;;8.10;6.78;;;;;;;;;;5052329;28;20078;-55
2021/11/19 01:56:23;;;;;;;10.15;7.43;;;;;;;;;;5053323;28;20060;-56
2021/11/19 01:58:55;;;;;;;10.20;7.70;;;;;;;;;;5052538;28;20482;-56
2021/11/19 02:01:33;;;;;;;8.48;7.57;;;;;;;;;;5053250;28;20110;-53
2021/11/19 02:04:01;;;;;;;12.13;7.93;;;;;;;;;;5052831;28;20375;-54
2021/11/19 02:06:38;;;;;;;8.63;7.28;;;;;;;;;;5052821;28;20025;-57
2021/11/19 02:09:09;;;;;;;9.43;7.83;;;;;;;;;;5052158;28;20625;-55
2021/11/19 02:12:07;;;;;;;9.40;7.22;;;;;;;;;;5053118;28;20036;-56
2021/11/19 02:14:53;;;;;;;8.47;7.53;;;;;;;;;;5029932;28;20098;-57
2021/11/19 02:17:19;;;;;;;7.55;6.85;;;;;;;;;;5052818;28;20360;-56
2021/11/19 02:19:49;;;;;;;13.05;8.38;;;;;;;;;;5052214;28;20498;-56
2021/11/19 02:22:20;;;;;;;8.57;7.60;;;;;;;;;;5052878;28;20068;-56
2021/11/19 02:24:48;;;;;;;11.97;7.70;;;;;;;;;;5052746;28;20029;-56
2021/11/19 02:27:19;;;;;;;8.43;7.53;;;;;;;;;;5052318;28;20029;-56
2021/11/19 02:30:07;;;;;;;12.13;9.00;;;;;;;;;;5052217;28;20033;-53
2021/11/19 02:32:36;;;;;;;8.77;7.88;;;;;;;;;;5052479;28;20021;-55
2021/11/19 02:35:03;;;;;;;14.60;9.40;;;;;;;;;;5052612;28;20029;-55
2021/11/19 02:37:38;;;;;;;9.10;7.80;;;;;;;;;;5052254;28;20033;-55
2021/11/19 02:40:07;;;;;;;10.05;7.55;;;;;;;;;;5052056;28;20498;-56
2021/11/19 02:42:38;;;;;;;13.13;8.13;;;;;;;;;;5052516;28;20033;-55
2021/11/19 02:45:06;;;;;;;8.93;7.53;;;;;;;;;;5052322;28;20529;-53
2021/11/19 02:47:32;;;;;;;8.55;7.57;;;;;;;;;;5052102;28;20487;-55
2021/11/19 02:49:58;;;;;;;11.48;8.65;;;;;;;;;;5051588;28;20142;-55
2021/11/19 02:52:27;;;;;;;11.35;7.80;;;;;;;;;;5052257;28;20055;-52
2021/11/19 02:54:54;;;;;;;12.80;7.93;;;;;;;;;;5052382;28;20570;-54
2021/11/19 02:57:21;;;;;;;9.57;7.45;;;;;;;;;;5052234;28;20025;-55
2021/11/19 02:59:48;;;;;;;11.93;8.17;;;;;;;;;;5051715;28;20537;-54
2021/11/19 03:02:16;;;;;;;11.40;8.17;;;;;;;;;;5052305;28;20124;-55
2021/11/19 03:04:45;;;;;;;9.52;8.18;;;;;;;;;;5032225;28;20120;-56
2021/11/19 03:07:11;;;;;;;9.07;7.13;;;;;;;;;;5032309;28;20045;-54
2021/11/19 03:09:39;;;;;;;11.02;8.23;;;;;;;;;;5031624;28;20037;-56
2021/11/19 03:12:06;;;;;;;10.43;7.80;;;;;;;;;;5032191;28;20112;-55
2021/11/19 03:14:33;;;;;;;8.45;7.57;;;;;;;;;;5032193;28;20060;-56
2021/11/19 03:17:00;;;;;;;8.40;7.30;;;;;;;;;;5031957;28;20026;-56
2021/11/19 03:19:26;;;;;;;12.48;6.95;;;;;;;;;;5031262;28;20049;-56
2021/11/19 03:21:53;;;;;;;8.47;7.50;;;;;;;;;;5032150;28;20052;-56
2021/11/19 03:24:19;;;;;;;10.50;7.77;;;;;;;;;;5032082;28;20030;-53
2021/11/19 03:26:45;;;;;;;12.05;7.43;;;;;;;;;;5031977;28;20087;-54
2021/11/19 03:29:11;;;;;;;11.95;7.60;;;;;;;;;;5031463;28;20379;-54
2021/11/19 03:31:38;;;;;;;10.73;6.50;;;;;;;;;;5031936;28;20022;-56
2021/11/19 03:34:04;;;;;;;8.45;6.65;;;;;;;;;;5031948;28;20036;-57
2021/11/19 03:36:31;;;;;;;11.23;6.93;;;;;;;;;;5031846;28;20037;-56
2021/11/19 03:38:58;;;;;;;10.30;8.37;;;;;;;;;;5031163;28;20079;-52
2021/11/19 03:41:26;;;;;;;9.52;7.93;;;;;;;;;;5031805;28;20026;-53
2021/11/19 03:44:12;;;;;;;9.30;7.73;;;;;;;;;;5031944;28;20022;-53
2021/11/19 03:46:58;;;;;;;12.95;8.40;;;;;;;;;;5031880;28;20025;-54
2021/11/19 03:49:24;;;;;;;15.85;9.50;;;;;;;;;;5031210;28;20033;-56
2021/11/19 03:51:55;;;;;;;11.75;6.97;;;;;;;;;;5031878;28;20026;-53
2021/11/19 03:54:22;;;;;;;13.68;6.95;;;;;;;;;;5031849;28;20478;-54
2021/11/19 03:56:49;;;;;;;8.80;7.78;;;;;;;;;;5031458;28;20025;-55
2021/11/19 03:59:15;;;;;;;11.77;8.02;;;;;;;;;;5030926;28;20391;-56
2021/11/19 04:01:43;;;;;;;8.32;6.88;;;;;;;;;;5031741;28;20030;-52
2021/11/19 04:04:10;;;;;;;10.23;7.95;;;;;;;;;;5046466;28;20059;-55
2021/11/19 04:06:36;;;;;;;9.47;8.50;;;;;;;;;;5051649;28;20494;-55
2021/11/19 04:09:04;;;;;;;8.65;7.70;;;;;;;;;;5051260;28;20175;-56
2021/11/19 04:11:30;;;;;;;11.40;7.50;;;;;;;;;;5051342;28;20025;-56
2021/11/19 04:13:56;;;;;;;12.40;7.97;;;;;;;;;;5051595;28;20025;-56
2021/11/19 04:16:27;;;;;;;11.83;9.70;;;;;;;;;;5052868;28;20055;-53
2021/11/19 04:18:53;;;;;;;11.50;8.02;;;;;;;;;;5054387;28;20029;-54
2021/11/19 04:21:20;;;;;;;9.05;7.60;;;;;;;;;;5054962;28;20029;-57
2021/11/19 04:23:48;;;;;;;11.90;7.85;;;;;;;;;;5054892;28;20037;-55
2021/11/19 04:26:14;;;;;;;8.52;7.03;;;;;;;;;;5054763;28;20041;-55
2021/11/19 04:28:40;;;;;;;9.70;7.68;;;;;;;;;;5054464;28;20078;-55
2021/11/19 04:31:07;;;;;;;11.43;7.35;;;;;;;;;;5050453;28;20025;-56
2021/11/19 04:33:33;;;;;;;7.63;6.32;;;;;;;;;;5054728;28;20033;-55
2021/11/19 04:36:00;;;;;;;10.23;8.50;;;;;;;;;;5054396;28;20037;-56
2021/11/19 04:38:27;;;;;;;7.60;6.22;;;;;;;;;;5053666;28;20546;-55
2021/11/19 04:40:53;;;;;;;9.03;7.53;;;;;;;;;;5054720;28;20032;-56
2021/11/19 04:43:20;;;;;;;10.00;7.53;;;;;;;;;;5054458;28;20567;-56
2021/11/19 04:45:46;;;;;;;7.72;6.50;;;;;;;;;;5054483;28;20485;-57
2021/11/19 04:48:12;;;;;;;8.27;7.15;;;;;;;;;;5052368;28;20029;-55
2021/11/19 04:50:40;;;;;;;10.73;6.93;;;;;;;;;;5054392;28;20491;-56
2021/11/19 04:53:07;;;;;;;9.00;7.43;;;;;;;;;;5054047;28;20431;-52
2021/11/19 04:55:33;;;;;;;8.48;6.82;;;;;;;;;;5054276;28;20436;-55
2021/11/19 04:57:59;;;;;;;10.13;6.88;;;;;;;;;;5053492;28;20458;-55
2021/11/19 05:00:37;;;;;;;6.68;6.03;;;;;;;;;;5054125;28;20119;-56
2021/11/19 05:03:03;;;;;;;8.13;7.22;;;;;;;;;;5039926;28;20064;-55
2021/11/19 05:05:29;;;;;;;14.05;8.20;;;;;;;;;;5054366;28;20163;-55
2021/11/19 05:07:55;;;;;;;13.00;6.88;;;;;;;;;;5053276;28;20068;-56
2021/11/19 05:10:21;;;;;;;10.00;7.15;;;;;;;;;;5054261;28;20025;-54
2021/11/19 05:12:50;;;;;;;9.05;6.55;;;;;;;;;;5053934;28;20455;-56
2021/11/19 05:15:16;;;;;;;9.18;7.35;;;;;;;;;;5053574;28;20028;-54
2021/11/19 05:17:42;;;;;;;8.10;7.25;;;;;;;;;;5053338;28;20472;-58
2021/11/19 05:20:09;;;;;;;6.77;5.90;;;;;;;;;;5053450;28;20126;-53
2021/11/19 05:22:35;;;;;;;9.63;8.00;;;;;;;;;;5053915;28;20298;-53
2021/11/19 05:25:01;;;;;;;8.40;7.30;;;;;;;;;;5054062;28;20033;-56
2021/11/19 05:27:27;;;;;;;7.95;6.35;;;;;;;;;;5052789;28;20027;-56
2021/11/19 05:29:53;;;;;;;10.77;8.67;;;;;;;;;;5052943;28;20493;-56
2021/11/19 05:32:20;;;;;;;8.33;7.23;;;;;;;;;;5053672;28;20029;-56
2021/11/19 05:34:46;;;;;;;9.93;7.87;;;;;;;;;;5053485;28;20036;-54
2021/11/19 05:37:12;;;;;;;14.80;8.73;;;;;;;;;;5053435;28;20132;-53
2021/11/19 05:39:39;;;;;;;13.37;7.10;;;;;;;;;;5052948;28;20029;-51
2021/11/19 05:42:05;;;;;;;8.37;7.50;;;;;;;;;;5053550;28;20033;-54
2021/11/19 05:44:34;;;;;;;8.70;7.60;;;;;;;;;;5053299;28;20032;-53
2021/11/19 05:47:01;;;;;;;9.10;7.93;;;;;;;;;;5053069;28;20399;-54
2021/11/19 05:49:27;;;;;;;9.07;7.57;;;;;;;;;;5052627;28;20033;-53
2021/11/19 05:51:54;;;;;;;8.93;6.80;;;;;;;;;;5053127;28;20116;-53
2021/11/19 05:54:21;;;;;;;9.77;8.50;;;;;;;;;;5053457;28;20033;-51
2021/11/19 05:56:47;;;;;;;9.33;8.37;;;;;;;;;;5053209;28;20032;-56
2021/11/19 05:59:13;;;;;;;11.77;8.77;;;;;;;;;;5052350;28;20123;-52
2021/11/19 06:01:39;;;;;;;8.60;7.10;;;;;;;;;;5053029;28;20029;-52
2021/11/19 06:04:06;;;;;;;10.10;7.65;;;;;;;;;;5053293;28;20032;-55
2021/11/19 06:06:32;;;;;;;10.00;7.63;;;;;;;;;;5053226;28;20025;-55
2021/11/19 06:08:58;;;;;;;10.40;7.43;;;;;;;;;;5052178;28;20056;-51
2021/11/19 06:11:26;;;;;;;9.63;8.50;;;;;;;;;;5052869;28;20032;-56
2021/11/19 06:13:57;;;;;;;11.07;8.50;;;;;;;;;;5050952;28;20124;-55
2021/11/19 06:16:32;;;;;;;9.70;7.30;;;;;;;;;;5046363;28;20027;-56
2021/11/19 06:19:01;;;;;;;9.70;7.63;;;;;;;;;;5051680;28;20029;-54
2021/11/19 06:21:30;;;;;;;8.48;7.57;;;;;;;;;;5052558;28;20033;-56
2021/11/19 06:23:57;;;;;;;10.07;8.80;;;;;;;;;;5052235;28;20082;-52
2021/11/19 06:26:25;;;;;;;10.13;8.35;;;;;;;;;;5052174;28;20033;-52
2021/11/19 06:28:52;;;;;;;10.73;8.13;;;;;;;;;;5051214;28;20118;-55
2021/11/19 06:31:20;;;;;;;9.37;8.37;;;;;;;;;;5052315;28;20021;-54
2021/11/19 06:33:46;;;;;;;12.03;8.80;;;;;;;;;;5052255;28;20459;-57
2021/11/19 06:36:13;;;;;;;11.13;8.00;;;;;;;;;;5051882;28;20041;-51
2021/11/19 06:38:39;;;;;;;12.18;8.52;;;;;;;;;;5051068;28;20498;-53
2021/11/19 06:41:06;;;;;;;11.57;8.03;;;;;;;;;;5052354;28;20360;-55
2021/11/19 06:43:32;;;;;;;12.43;9.47;;;;;;;;;;5050107;28;20036;-56
2021/11/19 06:45:58;;;;;;;11.90;8.17;;;;;;;;;;5051848;28;20025;-52
2021/11/19 06:48:24;;;;;;;9.57;7.97;;;;;;;;;;5051222;28;20487;-56
2021/11/19 06:50:50;;;;;;;9.83;7.20;;;;;;;;;;5051613;28;20041;-54
2021/11/19 06:53:18;;;;;;;11.20;9.00;;;;;;;;;;5051577;28;20028;-54
2021/11/19 06:55:44;;;;;;;17.77;10.47;;;;;;;;;;5052359;28;20035;-56
2021/11/19 06:58:11;;;;;;;19.67;7.87;;;;;;;;;;5050269;28;20044;-54
2021/11/19 07:00:40;;;;;;;10.03;8.10;;;;;;;;;;5051445;28;20147;-53
2021/11/19 07:03:06;;;;;;;11.02;9.10;;;;;;;;;;5048845;28;20037;-53
2021/11/19 07:05:32;;;;;;;10.27;8.68;;;;;;;;;;5046202;28;20039;-53
2021/11/19 07:08:01;;;;;;;10.45;8.48;;;;;;;;;;5050148;28;20033;-54
2021/11/19 07:10:28;;;;;;;13.50;10.40;;;;;;;;;;5050207;28;20033;-53
2021/11/19 07:12:54;;;;;;;10.10;8.38;;;;;;;;;;5051058;28;20029;-57
2021/11/19 07:15:20;;;;;;;14.48;9.43;;;;;;;;;;5050788;28;20490;-54
2021/11/19 07:17:47;;;;;;;13.18;8.77;;;;;;;;;;5050724;28;20029;-57
2021/11/19 07:20:14;;;;;;;12.85;9.88;;;;;;;;;;5050578;28;20121;-53
2021/11/19 07:22:41;;;;;;;12.68;10.52;;;;;;;;;;5051412;28;20021;-56
2021/11/19 07:25:08;;;;;;;15.45;9.32;;;;;;;;;;5050759;28;20021;-56
2021/11/19 07:27:34;;;;;;;11.77;8.85;;;;;;;;;;5051707;28;20032;-56
2021/11/19 07:30:01;;;;;;;10.60;8.50;;;;;;;;;;5050963;28;20057;-54
2021/11/19 07:32:27;;;;;;;20.83;10.75;;;;;;;;;;5050491;28;20029;-54
2021/11/19 07:34:53;;;;;;;10.27;8.35;;;;;;;;;;5050232;28;20039;-52
2021/11/19 07:37:23;;;;;;;11.85;9.27;;;;;;;;;;5050437;28;20025;-56
2021/11/19 07:39:49;;;;;;;12.32;10.50;;;;;;;;;;5049299;28;20040;-55
2021/11/19 07:42:15;;;;;;;11.55;9.88;;;;;;;;;;5049561;28;20335;-55
2021/11/19 07:44:41;;;;;;;12.00;8.90;;;;;;;;;;5050422;28;20463;-54
2021/11/19 07:47:07;;;;;;;11.45;9.80;;;;;;;;;;5050999;28;20029;-54
2021/11/19 07:49:33;;;;;;;12.07;8.77;;;;;;;;;;5046550;28;20048;-55
2021/11/19 07:51:59;;;;;;;13.27;10.15;;;;;;;;;;5051806;28;20052;-56
2021/11/19 07:54:25;;;;;;;13.13;9.48;;;;;;;;;;5043021;28;20036;-54
2021/11/19 07:56:51;;;;;;;12.27;9.82;;;;;;;;;;5050428;28;20032;-56
2021/11/19 07:59:19;;;;;;;13.73;10.48;;;;;;;;;;5049473;28;20106;-52
2021/11/19 08:01:46;;;;;;;10.40;8.80;;;;;;;;;;5051665;28;20032;-58
2021/11/19 08:04:12;;;;;;;11.13;9.57;;;;;;;;;;5052314;28;20045;-53
2021/11/19 08:06:38;;;;;;;11.57;9.32;;;;;;;;;;5050376;28;20036;-56
2021/11/19 08:09:05;;;;;;;10.77;9.68;;;;;;;;;;5048529;28;20371;-58
2021/11/19 08:11:31;;;;;;;14.95;10.50;;;;;;;;;;5050831;28;20379;-57
2021/11/19 08:13:57;;;;;;;20.40;11.40;;;;;;;;;;5053456;28;20094;-52
2021/11/19 08:16:23;;;;;;;12.68;9.23;;;;;;;;;;5050486;28;20051;-55
2021/11/19 08:18:55;;;;;;;16.40;12.57;;;;;;;;;;5052165;28;20183;-54
2021/11/19 08:21:22;;;;;;;15.80;12.82;;;;;;;;;;5046764;28;20021;-58
2021/11/19 08:23:53;;;;;;;20.30;13.30;;;;;;;;;;5051905;28;20036;-56
2021/11/19 08:26:21;;;;;;;14.05;12.40;;;;;;;;;;5052711;28;20025;-58
2021/11/19 08:28:48;;;;;;;14.27;12.90;;;;;;;;;;5053306;28;20033;-58
2021/11/19 08:31:17;;;;;;;15.82;11.98;;;;;;;;;;5055108;28;20068;-56
2021/11/19 08:33:43;;;;;;;14.68;13.15;;;;;;;;;;5053344;28;20025;-58
2021/11/19 08:36:10;;;;;;;12.88;11.40;;;;;;;;;;5054773;28;20044;-57
2021/11/19 08:38:36;;;;;;;17.45;12.90;;;;;;;;;;5053700;28;20036;-58
2021/11/19 08:41:03;;;;;;;18.73;12.00;;;;;;;;;;5053432;28;20043;-55
2021/11/19 08:43:34;;;;;;;14.20;12.68;;;;;;;;;;5052760;28;20651;-56
2021/11/19 08:45:59;;;;;;;;;;;;;;;;;;5054365;28;20036;-55
2021/11/19 08:48:27;;;;;;;14.75;11.10;;;;;;;;;;5052628;28;19909;-57
2021/11/19 08:50:53;;;;;;;19.20;13.23;;;;;;;;;;5054530;28;20032;-55
2021/11/19 08:53:19;;;;;;;20.15;14.82;;;;;;;;;;5053095;28;20422;-56
2021/11/19 08:55:47;;;;;;;18.70;13.25;;;;;;;;;;5053395;28;20423;-55
2021/11/19 08:58:14;;;;;;;18.05;11.45;;;;;;;;;;5051313;28;20426;-56
2021/11/19 09:00:41;;;;;;;15.05;12.73;;;;;;;;;;5052848;28;20029;-55
2021/11/19 09:03:09;;;;;;;19.83;12.10;;;;;;;;;;5053803;28;20036;-56
2021/11/19 09:05:37;;;;;;;20.80;14.05;;;;;;;;;;5053931;28;20116;-57
2021/11/19 09:08:04;;;;;;;24.25;11.73;;;;;;;;;;5053286;28;20037;-57
2021/11/19 09:10:30;;;;;;;13.93;11.23;;;;;;;;;;5053311;28;20537;-55
2021/11/19 09:12:56;;;;;;;20.65;13.38;;;;;;;;;;5054286;28;20025;-55
2021/11/19 09:15:23;;;;;;;20.02;12.15;;;;;;;;;;5053469;28;20082;-54
2021/11/19 09:17:52;;;;;;;16.90;11.10;;;;;;;;;;5052684;28;20033;-57
2021/11/19 09:20:21;;;;;;;18.90;10.10;;;;;;;;;;5052072;28;20110;-57
2021/11/19 09:23:10;;;;;;;19.75;12.70;;;;;;;;;;5052771;28;20033;-56
2021/11/19 09:25:37;;;;;;;21.60;12.23;;;;;;;;;;5047946;28;20044;-56
2021/11/19 09:28:03;;;;;;;15.25;9.52;;;;;;;;;;5052774;28;20032;-57
2021/11/19 09:30:36;;;;;;;11.93;10.50;;;;;;;;;;5053780;28;20028;-54
2021/11/19 09:33:03;;;;;;;22.15;11.77;;;;;;;;;;5053457;28;20041;-57
2021/11/19 09:35:30;;;;;;;22.90;11.98;;;;;;;;;;5051807;28;20113;-57
2021/11/19 09:37:56;;;;;;;21.98;11.52;;;;;;;;;;5050562;28;20090;-58
2021/11/19 09:40:27;;;;;;;14.68;10.57;;;;;;;;;;5052034;28;20107;-56
2021/11/19 09:42:53;;;;;;;;;;;;;;;;;;5051855;28;20029;-57
2021/11/19 09:45:29;;;;;;;18.27;11.18;;;;;;;;;;5052953;28;19915;-57
2021/11/19 09:48:14;;;;;;;20.77;11.35;;;;;;;;;;5052635;28;20035;-58
2021/11/19 09:50:58;;;;;;;14.00;11.02;;;;;;;;;;5050744;28;20133;-58
2021/11/19 09:53:44;;;;;;;18.60;11.52;;;;;;;;;;5053121;28;20028;-56
2021/11/19 09:56:28;;;;;;;19.75;11.27;;;;;;;;;;5053020;28;20489;-58
2021/11/19 09:58:57;;;;;;;15.10;9.63;;;;;;;;;;5050449;28;20505;-56
2021/11/19 10:01:42;;;;;;;17.55;11.02;;;;;;;;;;5052410;28;20045;-57
2021/11/19 10:04:23;;;;;;;11.95;8.98;;;;;;;;;;5052894;28;20025;-57
2021/11/19 10:06:54;;;;;;;12.48;9.18;;;;;;;;;;5053092;28;20024;-56
2021/11/19 10:09:20;;;;;;;;;;;;;;;;;;5052338;28;20025;-58
2021/11/19 10:11:53;;;;;;;11.85;10.40;;;;;;;;;;5052713;28;19912;-57
2021/11/19 10:14:42;;;;;;;16.90;11.68;;;;;;;;;;5051188;28;20514;-57
2021/11/19 10:17:10;;;;;;;14.45;9.95;;;;;;;;;;5050253;28;20052;-57
2021/11/19 10:19:48;;;;;;;12.70;10.77;;;;;;;;;;5042790;28;20025;-58
2021/11/19 10:22:19;;;;;;;13.05;10.48;;;;;;;;;;5050696;28;20043;-57
2021/11/19 10:24:51;;;;;;;13.90;9.40;;;;;;;;;;5050017;28;20024;-57
2021/11/19 10:27:19;;;;;;;13.50;10.20;;;;;;;;;;5044808;28;20028;-58
2021/11/19 10:29:54;;;;;;;12.68;10.60;;;;;;;;;;5050909;28;20028;-56
2021/11/19 10:32:22;;;;;;;15.45;10.30;;;;;;;;;;5050740;28;20032;-58
2021/11/19 10:34:48;;;;;;;12.15;9.88;;;;;;;;;;5052222;28;20036;-54
2021/11/19 10:37:14;;;;;;;20.40;9.43;;;;;;;;;;5051887;28;20025;-54
2021/11/19 10:40:03;;;;;;;15.85;11.40;;;;;;;;;;5051092;28;20541;-57
2021/11/19 10:42:42;;;;;;;18.77;11.00;;;;;;;;;;5051911;28;20487;-57
2021/11/19 10:45:11;;;;;;;30.73;12.35;;;;;;;;;;5031823;28;20061;-58
2021/11/19 10:47:46;;;;;;;12.35;10.40;;;;;;;;;;5049850;28;20532;-57
2021/11/19 10:50:32;;;;;;;17.50;9.95;;;;;;;;;;5052411;28;20044;-53
2021/11/19 10:53:16;;;;;;;13.95;8.98;;;;;;;;;;5052057;28;20039;-54
2021/11/19 10:56:01;;;;;;;13.23;9.15;;;;;;;;;;5050347;28;20104;-58
2021/11/19 10:58:39;;;;;;;13.52;7.90;;;;;;;;;;5051117;28;20092;-58
2021/11/19 11:01:10;;;;;;;12.90;8.55;;;;;;;;;;5050768;28;20478;-57
2021/11/19 11:04:01;;;;;;;15.82;10.10;;;;;;;;;;5045374;28;20052;-55
2021/11/19 11:06:27;;;;;;;;;;;;;;;;;;5049572;28;20090;-58
2021/11/19 11:08:53;;;;;;;13.88;9.70;;;;;;;;;;5050981;28;19913;-58
2021/11/19 11:11:22;;;;;;;15.90;9.60;;;;;;;;;;5051135;28;20104;-57
2021/11/19 11:14:02;;;;;;;13.93;10.25;;;;;;;;;;5051602;28;20029;-58
2021/11/19 11:16:39;;;;;;;16.38;9.50;;;;;;;;;;5051308;28;20032;-58
2021/11/19 11:19:12;;;;;;;19.50;11.00;;;;;;;;;;5050987;28;20379;-57
2021/11/19 11:21:40;;;;;;;11.13;9.00;;;;;;;;;;5051756;28;20021;-57
2021/11/19 11:24:24;;;;;;;15.63;10.93;;;;;;;;;;5051900;28;20416;-56
2021/11/19 11:26:53;;;;;;;15.95;11.88;;;;;;;;;;5053983;28;20112;-56
2021/11/19 11:29:18;;;;;;;21.73;9.90;;;;;;;;;;5054884;28;20017;-57
2021/11/19 11:32:02;;;;;;;16.73;9.50;;;;;;;;;;5055823;28;20471;-57
2021/11/19 11:34:40;;;;;;;17.77;11.40;;;;;;;;;;5055463;28;20033;-58
2021/11/19 11:37:16;;;;;;;15.70;10.90;;;;;;;;;;5051293;28;20037;-54
2021/11/19 11:39:55;;;;;;;12.32;10.35;;;;;;;;;;5054617;28;20052;-56
2021/11/19 11:42:23;;;;;;;19.55;12.35;;;;;;;;;;5055267;28;20115;-57
2021/11/19 11:44:51;;;;;;;14.68;11.13;;;;;;;;;;5055294;28;20029;-56
2021/11/19 11:47:30;;;;;;;16.52;12.35;;;;;;;;;;5035981;28;20448;-56
2021/11/19 11:49:57;;;;;;;15.18;11.70;;;;;;;;;;5035045;28;20037;-57
2021/11/19 11:52:42;;;;;;;17.85;12.70;;;;;;;;;;5046340;28;20024;-57
2021/11/19 11:55:27;;;;;;;19.90;12.35;;;;;;;;;;5055502;28;20055;-57
2021/11/19 11:57:52;;;;;;;14.98;11.77;;;;;;;;;;5054184;28;20028;-58
2021/11/19 12:00:18;;;;;;;16.33;11.88;;;;;;;;;;5054880;28;20028;-55
2021/11/19 12:02:54;;;;;;;16.98;13.10;;;;;;;;;;5052918;28;20033;-57
2021/11/19 12:05:25;;;;;;;18.25;13.32;;;;;;;;;;5055040;28;20044;-58
2021/11/19 12:07:57;;;;;;;16.20;10.73;;;;;;;;;;5054404;28;20444;-58
2021/11/19 12:10:35;;;;;;;17.13;11.68;;;;;;;;;;5044033;28;20059;-58
2021/11/19 12:13:04;;;;;;;19.92;13.18;;;;;;;;;;5053201;28;20048;-55
2021/11/19 12:15:30;;;;;;;16.77;13.32;;;;;;;;;;5054817;28;20067;-56
2021/11/19 12:18:03;;;;;;;22.42;14.52;;;;;;;;;;5053262;28;20033;-55
2021/11/19 12:20:49;;;;;;;19.02;14.20;;;;;;;;;;5054693;28;20095;-58
2021/11/19 12:23:38;;;;;;;21.38;15.18;;;;;;;;;;5053903;28;20104;-57
2021/11/19 12:26:22;;;;;;;21.90;13.95;;;;;;;;;;5045852;28;20398;-58
2021/11/19 12:28:55;;;;;;;19.00;13.30;;;;;;;;;;5054085;28;20021;-57
2021/11/19 12:31:26;;;;;;;23.42;15.55;;;;;;;;;;5053413;28;20041;-58
2021/11/19 12:34:08;;;;;;;21.55;14.65;;;;;;;;;;5053994;28;20035;-55
2021/11/19 12:36:39;;;;;;;20.35;13.80;;;;;;;;;;5053763;28;20036;-56
2021/11/19 12:39:06;;;;;;;20.83;16.05;;;;;;;;;;5053576;28;20308;-59
2021/11/19 12:41:50;;;;;;;19.08;14.07;;;;;;;;;;5053270;28;20475;-56
2021/11/19 12:44:38;;;;;;;18.67;14.63;;;;;;;;;;5051797;28;20113;-53
2021/11/19 12:47:17;;;;;;;18.75;13.40;;;;;;;;;;5043220;28;20083;-56
2021/11/19 12:50:01;;;;;;;16.73;12.15;;;;;;;;;;5053158;28;20041;-57
2021/11/19 12:52:35;;;;;;;15.55;12.02;;;;;;;;;;5053526;28;20025;-55
2021/11/19 12:55:18;;;;;;;14.77;11.88;;;;;;;;;;5053991;28;20029;-53
2021/11/19 12:57:55;;;;;;;18.23;11.95;;;;;;;;;;5053441;28;20029;-56
2021/11/19 13:00:37;;;;;;;15.98;12.82;;;;;;;;;;5054205;28;20028;-50
2021/11/19 13:03:22;;;;;;;16.25;11.57;;;;;;;;;;5052241;28;20429;-56
2021/11/19 13:05:59;;;;;;;20.73;12.73;;;;;;;;;;5054275;28;20033;-52
2021/11/19 13:08:43;;;;;;;14.93;11.98;;;;;;;;;;5053291;28;20359;-56
2021/11/19 13:11:28;;;;;;;15.00;11.65;;;;;;;;;;5053068;28;20399;-54
2021/11/19 13:14:18;;;;;;;15.70;11.90;;;;;;;;;;5053858;28;20033;-56
2021/11/19 13:16:55;;;;;;;14.88;10.40;;;;;;;;;;5052553;28;20065;-56
2021/11/19 13:19:30;;;;;;;18.48;11.10;;;;;;;;;;5032791;28;20025;-56
2021/11/19 13:21:56;;;;;;;13.80;10.68;;;;;;;;;;5046820;28;20073;-54
2021/11/19 13:24:28;;;;;;;18.20;10.95;;;;;;;;;;5053760;28;20419;-56
2021/11/19 13:27:09;;;;;;;19.50;11.23;;;;;;;;;;5053035;28;20090;-56
2021/11/19 13:29:38;;;;;;;16.45;11.40;;;;;;;;;;5047590;28;20029;-56
2021/11/19 13:32:20;;;;;;;18.08;10.35;;;;;;;;;;5052141;28;20024;-53
2021/11/19 13:34:54;;;;;;;15.68;12.10;;;;;;;;;;5052436;28;20029;-54
2021/11/19 13:37:38;;;;;;;21.27;11.27;;;;;;;;;;5033517;28;20035;-53
2021/11/19 13:40:23;;;;;;;16.25;10.00;;;;;;;;;;5032744;28;20043;-53
2021/11/19 13:42:50;;;;;;;13.98;10.18;;;;;;;;;;5049256;28;20029;-54
2021/11/19 13:45:28;;;;;;;17.60;9.95;;;;;;;;;;5052786;28;20127;-56
2021/11/19 13:48:13;;;;;;;14.98;10.48;;;;;;;;;;5032135;28;20028;-53
2021/11/19 13:50:52;;;;;;;23.33;10.32;;;;;;;;;;5043917;28;20155;-54
2021/11/19 13:53:33;;;;;;;15.18;9.60;;;;;;;;;;5051792;28;20052;-54
2021/11/19 13:56:35;;;;;;;16.45;9.65;;;;;;;;;;5042017;28;20040;-56
2021/11/19 13:59:04;;;;;;;11.85;8.18;;;;;;;;;;4994463;28;20114;-57
2021/11/19 14:01:48;;;;;;;21.92;10.32;;;;;;;;;;5040530;28;20052;-55
2021/11/19 14:04:23;;;;;;;17.60;10.43;;;;;;;;;;5048629;28;20536;-57
2021/11/19 14:06:57;;;;;;;15.15;9.27;;;;;;;;;;5051624;28;20029;-56
2021/11/19 14:09:23;;;;;;;17.70;9.48;;;;;;;;;;5047562;28;20028;-59
2021/11/19 14:11:56;;;;;;;12.38;6.43;;;;;;;;;;5052439;28;20029;-60
2021/11/19 14:14:24;;;;;;;11.40;8.60;;;;;;;;;;5051715;28;20029;-58
2021/11/19 14:16:56;;;;;;;15.80;7.45;;;;;;;;;;5052433;28;20394;-60
2021/11/19 14:19:47;;;;;;;11.80;8.15;;;;;;;;;;5051413;28;20029;-60
2021/11/19 14:22:13;;;;;;;11.55;8.35;;;;;;;;;;5052727;28;20083;-59
2021/11/19 14:24:39;;;;;;;14.38;9.38;;;;;;;;;;5052354;28;20021;-59
2021/11/19 14:27:12;;;;;;;16.98;10.77;;;;;;;;;;5052282;28;20025;-59
2021/11/19 14:29:43;;;;;;;14.90;9.43;;;;;;;;;;5051616;28;20037;-60
2021/11/19 14:32:10;;;;;;;14.15;8.50;;;;;;;;;;5051655;28;20079;-60
2021/11/19 14:34:47;;;;;;;19.38;9.93;;;;;;;;;;5052004;28;20040;-60
2021/11/19 14:37:17;;;;;;;17.08;9.45;;;;;;;;;;5051980;28;20032;-60
2021/11/19 14:39:43;;;;;;;15.88;11.20;;;;;;;;;;5050863;28;20399;-60
2021/11/19 14:42:14;;;;;;;15.32;10.65;;;;;;;;;;5051732;28;20057;-59
2021/11/19 14:44:42;;;;;;;12.93;8.80;;;;;;;;;;5051325;28;20033;-59
2021/11/19 14:47:13;;;;;;;16.17;9.25;;;;;;;;;;5051458;28;20025;-60
2021/11/19 14:49:43;;;;;;;11.55;9.95;;;;;;;;;;5051177;28;20045;-59
2021/11/19 14:52:09;;;;;;;;;;;;;;;;;;5042098;28;20033;-59
2021/11/19 14:54:37;;;;;;;23.23;11.75;;;;;;;;;;5051002;28;19916;-58